Time;durP1;ratioP1;P1;durP2;ratioP2;P2;SDS_P1;SDS_P2;PMS_P1;PMS_P2;Temp;Humidity;BMP_temperature;BMP_pressure;BME280_temperature;BME280_humidity;BME280_pressure;Samples;Min_cycle;Max_cycle;Signal;HPM_P1;HPM_P2
2022/04/24 00:01:11;;;;;;;11.30;8.35;;;10.30;99.90;;;;;;5126547;28;20047;-70
2022/04/24 00:03:37;;;;;;;11.15;8.77;;;10.30;99.90;;;;;;5107789;28;20042;-70
2022/04/24 00:06:03;;;;;;;12.10;8.57;;;10.30;99.90;;;;;;5127722;28;20059;-69
2022/04/24 00:08:29;;;;;;;9.75;8.18;;;10.30;99.90;;;;;;5146386;28;20039;-70
2022/04/24 00:10:55;;;;;;;10.02;8.15;;;10.20;99.90;;;;;;5144960;28;20057;-69
2022/04/24 00:13:23;;;;;;;10.75;8.30;;;10.20;99.90;;;;;;5124284;28;20043;-70
2022/04/24 00:15:49;;;;;;;10.80;8.38;;;10.20;99.90;;;;;;5145129;28;20043;-69
2022/04/24 00:18:14;;;;;;;11.30;8.65;;;10.20;99.90;;;;;;5122289;28;20069;-69
2022/04/24 00:20:42;;;;;;;12.63;8.75;;;10.10;99.90;;;;;;5125449;28;20514;-69
2022/04/24 00:23:07;;;;;;;10.30;8.65;;;10.10;99.90;;;;;;5146177;28;20043;-69
2022/04/24 00:25:33;;;;;;;12.80;9.10;;;10.00;99.90;;;;;;5126019;28;20351;-69
2022/04/24 00:28:00;;;;;;;10.20;8.48;;;9.80;99.90;;;;;;5126624;28;20043;-69
2022/04/24 00:30:27;;;;;;;9.90;8.48;;;9.80;99.90;;;;;;5126913;28;20118;-69
2022/04/24 00:32:52;;;;;;;11.57;8.15;;;9.60;99.90;;;;;;5126577;28;20074;-69
2022/04/24 00:35:18;;;;;;;12.07;8.75;;;9.60;99.90;;;;;;5122058;28;20047;-69
2022/04/24 00:37:44;;;;;;;9.90;8.88;;;9.70;99.90;;;;;;5145049;28;20039;-69
2022/04/24 00:40:10;;;;;;;10.55;8.73;;;9.80;99.90;;;;;;5145714;28;20046;-69
2022/04/24 00:42:36;;;;;;;13.35;8.95;;;9.80;99.90;;;;;;5126964;28;20490;-69
2022/04/24 00:45:02;;;;;;;12.48;8.43;;;9.90;99.90;;;;;;5126521;28;20106;-69
2022/04/24 00:47:28;;;;;;;9.05;7.85;;;9.80;99.90;;;;;;5123294;28;20472;-69
2022/04/24 00:49:53;;;;;;;9.52;7.78;;;9.80;99.90;;;;;;5113162;27;20082;-70
2022/04/24 00:52:19;;;;;;;9.32;8.05;;;9.80;99.90;;;;;;5131011;27;20091;-69
2022/04/24 00:54:45;;;;;;;10.75;9.13;;;9.90;99.90;;;;;;5148504;27;20039;-69
2022/04/24 00:57:16;;;;;;;9.52;7.80;;;9.80;99.90;;;;;;5130319;27;20042;-69
2022/04/24 00:59:42;;;;;;;10.05;8.27;;;9.80;99.90;;;;;;5130643;27;20055;-69
2022/04/24 01:02:09;;;;;;;9.95;8.23;;;9.80;99.90;;;;;;5130214;27;20091;-69
2022/04/24 01:04:36;;;;;;;10.10;8.18;;;9.70;99.90;;;;;;5129829;27;20047;-69
2022/04/24 01:07:02;;;;;;;10.48;7.68;;;9.70;99.90;;;;;;5130210;27;20039;-69
2022/04/24 01:09:30;;;;;;;9.50;7.97;;;9.70;99.90;;;;;;5148407;27;20114;-69
2022/04/24 01:11:56;;;;;;;10.80;8.38;;;9.80;99.90;;;;;;5129239;27;20486;-69
2022/04/24 01:14:25;;;;;;;9.00;7.82;;;9.70;99.90;;;;;;5130087;27;20058;-69
2022/04/24 01:16:51;;;;;;;10.55;8.10;;;9.60;99.90;;;;;;5130486;27;20579;-69
2022/04/24 01:19:18;;;;;;;9.60;7.78;;;9.60;99.90;;;;;;5129978;27;20043;-69
2022/04/24 01:21:45;;;;;;;9.10;8.20;;;9.60;99.90;;;;;;5129839;27;20094;-69
2022/04/24 01:24:12;;;;;;;10.10;8.68;;;9.90;99.90;;;;;;5129596;27;20080;-69
2022/04/24 01:26:38;;;;;;;10.00;8.30;;;9.70;99.90;;;;;;5127578;27;20055;-69
2022/04/24 01:29:05;;;;;;;9.48;8.15;;;9.60;99.90;;;;;;5142675;27;20051;-69
2022/04/24 01:31:31;;;;;;;8.88;7.60;;;9.60;99.90;;;;;;5146463;27;20098;-69
2022/04/24 01:33:58;;;;;;;11.73;8.85;;;9.70;99.90;;;;;;5143813;27;20047;-69
2022/04/24 01:36:24;;;;;;;10.25;8.48;;;9.70;99.90;;;;;;5147302;27;20073;-69
2022/04/24 01:38:49;;;;;;;11.82;8.82;;;9.60;99.90;;;;;;5146987;27;20039;-69
2022/04/24 01:41:15;;;;;;;12.15;9.10;;;9.50;99.90;;;;;;5145134;27;20453;-69
2022/04/24 01:43:42;;;;;;;10.50;9.02;;;9.60;99.90;;;;;;5147651;27;20043;-69
2022/04/24 01:46:09;;;;;;;10.60;8.98;;;9.70;99.90;;;;;;5142646;27;20050;-69
2022/04/24 01:48:35;;;;;;;10.27;8.63;;;9.60;99.90;;;;;;5129191;27;20447;-69
2022/04/24 01:51:08;;;;;;;10.55;8.68;;;9.50;99.90;;;;;;5127436;27;20039;-69
2022/04/24 01:53:34;;;;;;;12.38;9.05;;;9.40;99.90;;;;;;5129214;27;20269;-69
2022/04/24 01:56:05;;;;;;;11.25;9.07;;;9.50;99.90;;;;;;5128943;27;20490;-69
2022/04/24 01:58:31;;;;;;;10.38;8.82;;;9.40;99.90;;;;;;5147621;27;20043;-69
2022/04/24 02:00:56;;;;;;;9.98;8.57;;;9.30;99.90;;;;;;5123887;27;20056;-69
2022/04/24 02:03:24;;;;;;;10.63;8.57;;;9.20;99.90;;;;;;5128044;27;20051;-69
2022/04/24 02:05:50;;;;;;;10.55;9.05;;;9.20;99.90;;;;;;5143313;27;20040;-69
2022/04/24 02:08:16;;;;;;;11.85;8.57;;;9.10;99.90;;;;;;5146472;27;20061;-69
2022/04/24 02:10:41;;;;;;;10.02;8.60;;;9.10;99.90;;;;;;5147251;27;20051;-69
2022/04/24 02:13:08;;;;;;;9.75;8.63;;;9.10;99.90;;;;;;5128951;27;20054;-69
2022/04/24 02:15:34;;;;;;;10.25;8.60;;;9.10;99.90;;;;;;5111300;27;20043;-69
2022/04/24 02:18:00;;;;;;;10.70;9.15;;;9.10;99.90;;;;;;5147046;27;20039;-69
2022/04/24 02:20:26;;;;;;;12.00;8.95;;;9.10;99.90;;;;;;5128816;27;20076;-69
2022/04/24 02:22:52;;;;;;;11.88;9.85;;;9.00;99.90;;;;;;5111062;27;20043;-69
2022/04/24 02:25:18;;;;;;;12.23;9.10;;;9.00;99.90;;;;;;5125851;27;20080;-69
2022/04/24 02:27:44;;;;;;;10.48;8.30;;;9.00;99.90;;;;;;5128261;27;20047;-69
2022/04/24 02:30:10;;;;;;;10.13;8.80;;;9.00;99.90;;;;;;5123985;27;20124;-69
2022/04/24 02:32:36;;;;;;;10.32;9.20;;;8.90;99.90;;;;;;5125140;27;20444;-69
2022/04/24 02:35:02;;;;;;;10.93;8.82;;;9.00;99.90;;;;;;5127855;27;20143;-69
2022/04/24 02:37:27;;;;;;;10.90;8.98;;;9.00;99.90;;;;;;5112100;27;20035;-69
2022/04/24 02:39:53;;;;;;;12.82;8.80;;;9.00;99.90;;;;;;5128010;27;20497;-69
2022/04/24 02:42:19;;;;;;;9.80;8.70;;;8.90;99.90;;;;;;5106333;27;20040;-69
2022/04/24 02:44:45;;;;;;;10.23;8.90;;;9.00;99.90;;;;;;5145239;27;20054;-69
2022/04/24 02:47:11;;;;;;;10.45;8.57;;;8.80;99.90;;;;;;5110964;27;20158;-69
2022/04/24 02:49:37;;;;;;;10.25;8.35;;;8.80;99.90;;;;;;5146882;27;20401;-69
2022/04/24 02:52:03;;;;;;;9.90;8.88;;;9.00;99.90;;;;;;5147221;27;20099;-69
2022/04/24 02:54:29;;;;;;;10.48;8.48;;;8.70;99.90;;;;;;5128373;27;20126;-69
2022/04/24 02:56:55;;;;;;;11.35;9.77;;;8.70;99.90;;;;;;5127591;27;20035;-69
2022/04/24 02:59:20;;;;;;;12.25;9.60;;;8.80;99.90;;;;;;5128098;27;20045;-69
2022/04/24 03:01:46;;;;;;;10.27;8.60;;;8.70;99.90;;;;;;5110943;27;20115;-70
2022/04/24 03:04:12;;;;;;;11.05;8.77;;;8.70;99.90;;;;;;5123556;27;20047;-69
2022/04/24 03:06:38;;;;;;;10.65;9.32;;;8.70;99.90;;;;;;5128123;27;20123;-69
2022/04/24 03:09:05;;;;;;;9.90;8.90;;;8.70;99.90;;;;;;5144658;27;20497;-69
2022/04/24 03:11:31;;;;;;;21.30;9.80;;;8.60;99.90;;;;;;5125852;27;20047;-69
2022/04/24 03:13:57;;;;;;;11.55;8.65;;;8.50;99.90;;;;;;5125971;27;20114;-69
2022/04/24 03:16:23;;;;;;;11.25;8.68;;;8.50;99.90;;;;;;5139107;27;20099;-69
2022/04/24 03:18:48;;;;;;;11.13;9.93;;;8.50;99.90;;;;;;5142334;27;20470;-69
2022/04/24 03:21:14;;;;;;;13.85;9.50;;;8.40;99.90;;;;;;5110157;27;20106;-69
2022/04/24 03:23:40;;;;;;;11.75;8.90;;;8.30;99.90;;;;;;5125449;28;20513;-69
2022/04/24 03:26:06;;;;;;;11.18;8.88;;;8.20;99.90;;;;;;5142151;27;20031;-69
2022/04/24 03:28:31;;;;;;;11.15;9.60;;;8.30;99.90;;;;;;5127508;27;20043;-69
2022/04/24 03:30:57;;;;;;;11.48;9.18;;;8.20;99.90;;;;;;5145966;27;20065;-69
2022/04/24 03:33:23;;;;;;;12.45;9.57;;;8.10;99.90;;;;;;5127071;27;20077;-69
2022/04/24 03:35:48;;;;;;;12.40;9.23;;;8.20;99.90;;;;;;5123187;28;20043;-69
2022/04/24 03:38:14;;;;;;;10.75;9.15;;;8.20;99.90;;;;;;5125483;28;20043;-69
2022/04/24 03:40:40;;;;;;;12.25;9.60;;;8.20;99.90;;;;;;5127253;27;20046;-69
2022/04/24 03:43:06;;;;;;;10.70;9.00;;;8.30;99.90;;;;;;5127062;28;20082;-69
2022/04/24 03:45:32;;;;;;;12.13;10.15;;;8.20;99.90;;;;;;5145433;28;20055;-69
2022/04/24 03:47:57;;;;;;;10.98;9.35;;;8.10;99.90;;;;;;5126809;28;20109;-69
2022/04/24 03:50:23;;;;;;;13.25;9.60;;;8.10;99.90;;;;;;5126817;28;20125;-69
2022/04/24 03:52:49;;;;;;;11.50;9.20;;;8.10;99.90;;;;;;5123972;28;20077;-69
2022/04/24 03:55:15;;;;;;;12.75;9.50;;;8.10;99.90;;;;;;5126599;28;20047;-69
2022/04/24 03:57:40;;;;;;;11.98;8.85;;;8.10;99.90;;;;;;5127240;28;20039;-69
2022/04/24 04:00:09;;;;;;;12.70;10.20;;;8.20;99.90;;;;;;5127549;28;20047;-69
2022/04/24 04:02:48;;;;;;;10.90;9.13;;;8.10;99.90;;;;;;5145355;28;20039;-69
2022/04/24 04:05:16;;;;;;;13.27;9.57;;;8.10;99.90;;;;;;5124932;28;20043;-69
2022/04/24 04:07:43;;;;;;;10.60;9.40;;;8.00;99.90;;;;;;5124431;28;20066;-69
2022/04/24 04:10:09;;;;;;;12.50;9.38;;;8.00;99.90;;;;;;5133381;27;20039;-69
2022/04/24 04:12:35;;;;;;;11.02;9.32;;;7.90;99.90;;;;;;5145338;28;20051;-69
2022/04/24 04:15:05;;;;;;;10.18;8.90;;;7.90;99.90;;;;;;5127934;28;20134;-69
2022/04/24 04:17:32;;;;;;;12.57;9.05;;;8.00;99.90;;;;;;5126722;28;20077;-69
2022/04/24 04:19:59;;;;;;;12.90;9.55;;;8.10;99.90;;;;;;5127021;28;20045;-69
2022/04/24 04:22:25;;;;;;;11.73;9.68;;;8.00;99.90;;;;;;5145944;27;20062;-69
2022/04/24 04:24:51;;;;;;;11.35;8.98;;;8.00;99.90;;;;;;5112588;27;20062;-69
2022/04/24 04:27:17;;;;;;;13.30;9.73;;;7.90;99.90;;;;;;5146289;27;20073;-69
2022/04/24 04:29:43;;;;;;;13.77;9.93;;;8.00;99.90;;;;;;5146939;27;20107;-69
2022/04/24 04:32:09;;;;;;;12.25;9.30;;;8.00;99.90;;;;;;5147817;27;20114;-69
2022/04/24 04:34:34;;;;;;;12.27;9.55;;;8.10;99.90;;;;;;5145167;27;20088;-69
2022/04/24 04:37:00;;;;;;;10.23;9.15;;;7.90;99.90;;;;;;5147537;27;20075;-69
2022/04/24 04:39:26;;;;;;;13.30;10.50;;;8.00;99.90;;;;;;5131130;27;20038;-69
2022/04/24 04:41:52;;;;;;;10.15;8.95;;;8.10;99.90;;;;;;5148592;27;20069;-69
2022/04/24 04:44:18;;;;;;;13.13;9.35;;;8.00;99.90;;;;;;5128302;27;20035;-69
2022/04/24 04:46:43;;;;;;;12.13;9.25;;;8.00;99.90;;;;;;5148839;27;20031;-69
2022/04/24 04:49:09;;;;;;;9.30;8.27;;;8.00;99.90;;;;;;5149511;27;20047;-69
2022/04/24 04:51:35;;;;;;;11.95;9.30;;;8.10;99.90;;;;;;5127419;27;20080;-69
2022/04/24 04:54:01;;;;;;;11.65;8.70;;;8.10;99.90;;;;;;5111288;27;20043;-69
2022/04/24 04:56:26;;;;;;;12.45;9.10;;;8.20;99.90;;;;;;5130299;27;20095;-69
2022/04/24 04:58:52;;;;;;;10.88;9.07;;;8.10;99.90;;;;;;5130323;27;20070;-69
2022/04/24 05:01:18;;;;;;;11.43;8.90;;;8.20;99.90;;;;;;5125475;27;20047;-69
2022/04/24 05:03:44;;;;;;;11.65;9.38;;;8.20;99.90;;;;;;5129627;27;20039;-69
2022/04/24 05:06:09;;;;;;;9.68;8.65;;;8.40;99.90;;;;;;5130217;27;20054;-69
2022/04/24 05:08:35;;;;;;;10.60;8.07;;;8.30;99.90;;;;;;5130218;27;20047;-69
2022/04/24 05:11:01;;;;;;;11.65;9.00;;;8.20;99.90;;;;;;5148455;27;20055;-69
2022/04/24 05:13:27;;;;;;;10.45;8.32;;;8.40;99.90;;;;;;5110059;27;20402;-69
2022/04/24 05:15:54;;;;;;;12.50;9.40;;;8.30;99.90;;;;;;5125337;27;20058;-69
2022/04/24 05:18:20;;;;;;;16.00;9.05;;;8.20;99.90;;;;;;5129534;27;20027;-69
2022/04/24 05:20:46;;;;;;;12.27;8.43;;;8.30;99.90;;;;;;5146708;27;20039;-69
2022/04/24 05:23:12;;;;;;;11.30;8.65;;;8.30;99.90;;;;;;5125086;27;20043;-69
2022/04/24 05:25:37;;;;;;;12.63;9.45;;;8.30;99.90;;;;;;5128571;27;20529;-69
2022/04/24 05:28:04;;;;;;;11.43;8.73;;;8.30;99.90;;;;;;5144061;27;20035;-69
2022/04/24 05:30:30;;;;;;;11.85;9.55;;;8.30;99.90;;;;;;5129690;27;20054;-69
2022/04/24 05:32:56;;;;;;;12.68;9.50;;;8.40;99.90;;;;;;5143739;27;20043;-69
2022/04/24 05:35:23;;;;;;;12.95;9.80;;;8.50;99.90;;;;;;5130340;27;20104;-69
2022/04/24 05:37:49;;;;;;;12.10;9.15;;;8.60;99.90;;;;;;5147858;27;20059;-69
2022/04/24 05:40:15;;;;;;;13.68;9.55;;;8.60;99.90;;;;;;5129305;27;20055;-69
2022/04/24 05:42:49;;;;;;;13.18;9.20;;;8.60;99.90;;;;;;5126384;27;20039;-69
2022/04/24 05:45:18;;;;;;;12.10;9.07;;;8.70;99.90;;;;;;5147356;27;20047;-69
2022/04/24 05:47:46;;;;;;;11.20;9.13;;;8.60;99.90;;;;;;5128839;27;20032;-69
2022/04/24 05:50:12;;;;;;;13.25;10.23;;;8.80;99.90;;;;;;5128967;27;20062;-69
2022/04/24 05:52:38;;;;;;;12.50;9.10;;;8.80;99.90;;;;;;5128276;27;20404;-69
2022/04/24 05:55:04;;;;;;;13.05;9.45;;;8.90;99.90;;;;;;5128469;27;20066;-69
2022/04/24 05:57:30;;;;;;;14.35;9.93;;;8.90;99.90;;;;;;5124279;27;20072;-69
2022/04/24 05:59:56;;;;;;;12.98;9.60;;;9.00;99.90;;;;;;5129534;27;20071;-69
2022/04/24 06:02:21;;;;;;;10.95;9.45;;;9.00;99.90;;;;;;5123852;27;20034;-69
2022/04/24 06:04:47;;;;;;;13.18;9.40;;;9.00;99.90;;;;;;5129784;27;20051;-69
2022/04/24 06:07:13;;;;;;;11.93;9.35;;;9.00;99.90;;;;;;5107490;28;20078;-69
2022/04/24 06:09:38;;;;;;;13.55;9.85;;;9.10;99.90;;;;;;5127926;27;20076;-69
2022/04/24 06:12:04;;;;;;;13.23;9.80;;;9.00;99.90;;;;;;5129260;27;20058;-69
2022/04/24 06:14:30;;;;;;;13.88;9.90;;;9.20;99.90;;;;;;5148259;27;20063;-69
2022/04/24 06:16:56;;;;;;;12.98;9.73;;;9.30;99.90;;;;;;5128100;27;20051;-69
2022/04/24 06:19:22;;;;;;;13.45;10.00;;;9.30;99.90;;;;;;5091508;28;20136;-69
2022/04/24 06:21:47;;;;;;;15.00;10.35;;;9.30;99.90;;;;;;5125554;27;20035;-69
2022/04/24 06:24:13;;;;;;;12.32;9.70;;;9.40;99.90;;;;;;5126042;27;20047;-69
2022/04/24 06:26:41;;;;;;;13.25;10.30;;;9.30;99.90;;;;;;5146566;27;20039;-69
2022/04/24 06:29:07;;;;;;;12.70;9.30;;;9.40;99.90;;;;;;5128870;27;20053;-69
2022/04/24 06:31:32;;;;;;;12.40;9.60;;;9.50;99.90;;;;;;5127071;27;20043;-69
2022/04/24 06:33:58;;;;;;;14.80;9.98;;;9.60;99.90;;;;;;5132551;27;20035;-69
2022/04/24 06:36:24;;;;;;;13.35;9.40;;;9.50;99.90;;;;;;5128009;27;20071;-69
2022/04/24 06:38:49;;;;;;;12.80;9.35;;;9.60;99.90;;;;;;5111007;27;20106;-69
2022/04/24 06:41:15;;;;;;;9.93;8.75;;;9.60;99.90;;;;;;5128329;27;20114;-69
2022/04/24 06:43:40;;;;;;;11.35;8.93;;;9.60;99.90;;;;;;5146731;27;20062;-69
2022/04/24 06:46:06;;;;;;;13.10;8.90;;;9.70;99.90;;;;;;5126643;27;20126;-69
2022/04/24 06:48:32;;;;;;;12.45;8.60;;;9.70;99.90;;;;;;5111120;27;20043;-69
2022/04/24 06:50:58;;;;;;;12.73;9.27;;;9.80;99.90;;;;;;5127800;27;20062;-69
2022/04/24 06:53:25;;;;;;;11.65;8.10;;;9.90;99.90;;;;;;5090847;28;20092;-69
2022/04/24 06:55:51;;;;;;;12.38;8.75;;;9.90;99.90;;;;;;5128673;27;20097;-69
2022/04/24 06:58:18;;;;;;;10.25;8.35;;;10.00;99.90;;;;;;5128837;27;20043;-69
2022/04/24 07:00:45;;;;;;;10.45;8.23;;;10.20;99.90;;;;;;5128236;27;20038;-69
2022/04/24 07:03:17;;;;;;;11.93;7.68;;;10.10;99.90;;;;;;5123337;27;20047;-69
2022/04/24 07:05:43;;;;;;;9.65;7.18;;;10.10;99.90;;;;;;5126847;27;20062;-69
2022/04/24 07:08:09;;;;;;;11.32;7.75;;;10.20;99.90;;;;;;5143173;27;20035;-69
2022/04/24 07:10:35;;;;;;;8.82;7.18;;;10.30;99.90;;;;;;5145523;27;20135;-69
2022/04/24 07:13:01;;;;;;;8.82;7.20;;;10.40;99.90;;;;;;5128278;27;20043;-69
2022/04/24 07:15:30;;;;;;;10.07;7.30;;;10.40;99.90;;;;;;5146135;27;20047;-69
2022/04/24 07:17:56;;;;;;;11.85;8.07;;;10.40;99.90;;;;;;5145612;27;20090;-69
2022/04/24 07:20:22;;;;;;;8.23;6.15;;;10.60;99.90;;;;;;5126718;27;20054;-69
2022/04/24 07:22:50;;;;;;;8.82;6.22;;;10.80;99.90;;;;;;5127666;27;20062;-69
2022/04/24 07:25:18;;;;;;;7.93;5.63;;;10.80;99.90;;;;;;5145695;27;20053;-69
2022/04/24 07:27:45;;;;;;;7.70;5.35;;;10.90;99.90;;;;;;5110642;27;20043;-69
2022/04/24 07:30:15;;;;;;;9.70;6.18;;;10.90;99.90;;;;;;5122748;27;20051;-69
2022/04/24 07:32:41;;;;;;;;;;;10.90;99.90;;;;;;5128112;27;20042;-69
2022/04/24 07:35:10;;;;;;;7.53;5.40;;;11.10;99.90;;;;;;5113651;28;19920;-71
2022/04/24 07:37:36;;;;;;;8.43;5.47;;;11.00;99.90;;;;;;5124356;28;20054;-65
2022/04/24 07:40:02;;;;;;;8.27;5.18;;;11.20;99.90;;;;;;5125451;27;20059;-66
2022/04/24 07:42:28;;;;;;;8.02;5.30;;;11.10;99.90;;;;;;5126886;28;20544;-69
2022/04/24 07:44:53;;;;;;;7.20;5.28;;;11.20;99.90;;;;;;5122223;28;20046;-68
2022/04/24 07:47:19;;;;;;;6.53;5.10;;;11.20;99.90;;;;;;5125459;28;20039;-68
2022/04/24 07:49:45;;;;;;;5.95;4.70;;;11.20;99.90;;;;;;5124697;28;20082;-70
2022/04/24 07:52:11;;;;;;;7.88;5.32;;;11.20;99.90;;;;;;5108219;28;20058;-68
2022/04/24 07:54:36;;;;;;;7.60;5.13;;;11.40;99.90;;;;;;5124212;28;20047;-68
2022/04/24 07:57:02;;;;;;;8.75;5.03;;;11.40;99.90;;;;;;5144199;27;20035;-68
2022/04/24 07:59:28;;;;;;;8.48;4.60;;;11.50;99.90;;;;;;5130594;27;20073;-68
2022/04/24 08:01:53;;;;;;;6.25;4.53;;;11.60;99.90;;;;;;5128546;27;20050;-68
2022/04/24 08:04:19;;;;;;;6.22;3.85;;;11.80;99.90;;;;;;5106998;27;20501;-69
2022/04/24 08:06:45;;;;;;;7.97;4.25;;;11.90;99.90;;;;;;5130146;27;20103;-70
2022/04/24 08:09:10;;;;;;;5.65;3.45;;;11.90;99.90;;;;;;5129835;27;20053;-70
2022/04/24 08:11:36;;;;;;;6.47;3.58;;;12.00;99.90;;;;;;5129747;27;20050;-70
2022/04/24 08:14:02;;;;;;;6.57;3.47;;;12.20;99.90;;;;;;5129104;27;20054;-70
2022/04/24 08:16:27;;;;;;;5.68;3.80;;;12.30;99.90;;;;;;5129463;27;20455;-69
2022/04/24 08:18:53;;;;;;;5.00;3.47;;;12.40;99.90;;;;;;5129177;27;20054;-69
2022/04/24 08:21:19;;;;;;;6.93;3.50;;;12.40;99.90;;;;;;5109490;27;20054;-69
2022/04/24 08:23:44;;;;;;;6.13;3.80;;;12.50;99.90;;;;;;5147925;27;20046;-70
2022/04/24 08:26:10;;;;;;;5.20;3.58;;;12.80;99.90;;;;;;5130125;27;20091;-68
2022/04/24 08:28:36;;;;;;;4.90;3.60;;;12.90;99.90;;;;;;5130627;27;20039;-67
2022/04/24 08:31:02;;;;;;;5.22;3.38;;;13.00;99.90;;;;;;5126337;27;20513;-70
2022/04/24 08:33:28;;;;;;;7.10;4.00;;;13.20;99.90;;;;;;5131605;27;20043;-69
2022/04/24 08:35:54;;;;;;;7.95;3.72;;;13.20;99.90;;;;;;5113014;27;20406;-69
2022/04/24 08:38:20;;;;;;;7.30;4.15;;;13.20;99.90;;;;;;5148508;27;20035;-69
2022/04/24 08:40:46;;;;;;;4.53;3.50;;;13.20;99.90;;;;;;5129063;27;20054;-68
2022/04/24 08:43:14;;;;;;;6.60;3.33;;;13.20;99.90;;;;;;5129391;27;21052;-69
2022/04/24 08:45:43;;;;;;;6.03;3.78;;;13.20;99.90;;;;;;5112111;27;20051;-75
2022/04/24 08:48:09;;;;;;;7.82;4.55;;;13.20;99.90;;;;;;5149469;27;20042;-69
2022/04/24 08:50:36;;;;;;;4.68;3.33;;;13.30;99.90;;;;;;5116740;28;20112;-69
2022/04/24 08:53:03;;;;;;;8.38;4.03;;;13.40;99.90;;;;;;5106201;28;20048;-69
2022/04/24 08:55:32;;;;;;;8.85;3.88;;;13.30;99.90;;;;;;5106941;28;20044;-69
2022/04/24 08:57:59;;;;;;;5.50;3.83;;;13.40;99.90;;;;;;5103227;28;20050;-69
2022/04/24 09:00:27;;;;;;;5.80;3.70;;;13.50;99.90;;;;;;5106338;28;20074;-69
2022/04/24 09:02:53;;;;;;;7.03;3.30;;;13.50;99.90;;;;;;5105516;28;20056;-69
2022/04/24 09:05:21;;;;;;;8.50;4.40;;;13.50;99.90;;;;;;5105855;28;20495;-70
2022/04/24 09:07:47;;;;;;;12.23;4.72;;;13.50;99.90;;;;;;5105543;28;20040;-71
2022/04/24 09:10:12;;;;;;;5.03;4.03;;;13.60;99.90;;;;;;5094396;28;20112;-71
2022/04/24 09:12:40;;;;;;;9.05;4.15;;;13.60;99.90;;;;;;5096670;28;20483;-70
2022/04/24 09:15:07;;;;;;;4.82;3.85;;;13.80;99.90;;;;;;5104284;28;20054;-70
2022/04/24 09:17:34;;;;;;;9.55;3.95;;;13.90;99.90;;;;;;5099365;28;20046;-70
2022/04/24 09:20:01;;;;;;;6.97;4.18;;;14.00;99.90;;;;;;5103997;28;20055;-70
2022/04/24 09:22:27;;;;;;;5.18;3.35;;;14.00;99.90;;;;;;5098702;28;20044;-70
2022/04/24 09:25:00;;;;;;;7.35;4.03;;;13.90;99.90;;;;;;5091371;28;20094;-71
2022/04/24 09:27:27;;;;;;;6.47;3.72;;;14.00;99.90;;;;;;5076110;28;20052;-70
2022/04/24 09:29:55;;;;;;;6.20;4.00;;;14.30;99.90;;;;;;5095875;28;20071;-70
2022/04/24 09:32:23;;;;;;;9.57;3.95;;;14.40;99.90;;;;;;5104891;28;20076;-71
2022/04/24 09:34:50;;;;;;;7.93;3.85;;;14.60;99.90;;;;;;5106540;28;20048;-67
2022/04/24 09:37:15;;;;;;;8.05;4.60;;;14.50;99.90;;;;;;5105171;28;20105;-67
2022/04/24 09:39:41;;;;;;;5.90;3.95;;;14.60;99.90;;;;;;5112896;28;20070;-67
2022/04/24 09:42:10;;;;;;;6.32;3.70;;;14.60;99.90;;;;;;5083190;28;20074;-68
2022/04/24 09:44:47;;;;;;;5.03;4.18;;;14.60;99.90;;;;;;5103044;28;20046;-68
2022/04/24 09:47:16;;;;;;;8.35;4.40;;;14.50;99.90;;;;;;5097734;28;20083;-68
2022/04/24 09:49:46;;;;;;;8.10;3.40;;;14.60;99.90;;;;;;5109693;27;20048;-68
2022/04/24 09:52:22;;;;;;;6.43;3.85;;;14.70;99.90;;;;;;5111179;27;20039;-68
2022/04/24 09:54:53;;;;;;;5.13;3.70;;;14.90;99.90;;;;;;5110744;27;20031;-67
2022/04/24 09:57:22;;;;;;;5.97;4.07;;;15.00;99.90;;;;;;5125359;27;20491;-67
2022/04/24 09:59:50;;;;;;;6.13;3.47;;;14.90;99.90;;;;;;5129669;27;20126;-68
2022/04/24 10:02:18;;;;;;;8.25;4.20;;;15.00;99.90;;;;;;5125611;27;20035;-68
2022/04/24 10:04:46;;;;;;;8.52;3.83;;;15.00;99.90;;;;;;5129515;27;20079;-67
2022/04/24 10:07:16;;;;;;;5.78;3.80;;;15.10;99.90;;;;;;5128167;27;20581;-67
2022/04/24 10:09:44;;;;;;;5.05;3.60;;;15.00;99.90;;;;;;5128844;27;20047;-67
2022/04/24 10:12:18;;;;;;;5.03;3.42;;;15.10;99.90;;;;;;5129544;27;20054;-67
2022/04/24 10:14:49;;;;;;;6.05;3.10;;;15.10;99.90;;;;;;5121812;27;20046;-67
2022/04/24 10:17:35;;;;;;;12.25;11.02;;;15.20;99.90;;;;;;5076977;27;20308;-68
2022/04/24 10:20:29;;;;;;;7.03;3.75;;;15.30;99.90;;;;;;5097199;28;20139;-68
2022/04/24 10:22:57;;;;;;;9.10;4.00;;;15.30;99.90;;;;;;5112104;27;20070;-69
2022/04/24 10:25:40;;;;;;;5.35;3.47;;;15.30;99.90;;;;;;5106602;27;20043;-68
2022/04/24 10:28:10;;;;;;;7.43;3.70;;;15.40;99.90;;;;;;5099350;27;20047;-68
2022/04/24 10:30:36;;;;;;;4.70;3.30;;;15.40;99.90;;;;;;5137024;27;20047;-68
2022/04/24 10:33:23;;;;;;;7.47;4.13;;;15.30;99.90;;;;;;5125619;27;20077;-70
2022/04/24 10:35:53;;;;;;;6.35;3.25;;;15.50;99.90;;;;;;5103685;27;20049;-70
2022/04/24 10:38:21;;;;;;;6.13;3.95;;;15.50;99.90;;;;;;5107542;27;20055;-71
2022/04/24 10:40:57;;;;;;;5.63;3.65;;;15.60;99.90;;;;;;5112183;27;20027;-71
2022/04/24 10:43:25;;;;;;;4.75;3.67;;;15.60;99.90;;;;;;5112953;27;20076;-71
2022/04/24 10:45:52;;;;;;;5.05;3.63;;;15.70;99.90;;;;;;5115420;27;20055;-71
2022/04/24 10:48:19;;;;;;;5.20;3.58;;;16.00;99.90;;;;;;5118293;27;20047;-71
2022/04/24 10:50:54;;;;;;;8.73;4.20;;;16.00;99.90;;;;;;5125707;27;20062;-71
2022/04/24 10:53:20;;;;;;;8.48;3.75;;;16.00;99.90;;;;;;5121449;27;20117;-71
2022/04/24 10:55:46;;;;;;;7.57;3.70;;;15.90;99.90;;;;;;5129621;27;20136;-71
2022/04/24 10:58:12;;;;;;;4.38;3.97;;;16.10;99.90;;;;;;5123921;27;20055;-71
2022/04/24 11:00:38;;;;;;;7.28;3.78;;;16.10;99.90;;;;;;5125931;27;20501;-71
2022/04/24 11:03:15;;;;;;;6.43;3.25;;;16.10;99.90;;;;;;5098938;27;20058;-72
2022/04/24 11:05:46;;;;;;;7.28;4.03;;;16.30;99.50;;;;;;5110089;27;20039;-71
2022/04/24 11:08:21;;;;;;;6.55;3.75;;;16.40;99.70;;;;;;5124897;27;20043;-71
2022/04/24 11:10:49;;;;;;;4.18;3.72;;;16.70;99.90;;;;;;5107457;27;20051;-71
2022/04/24 11:13:18;;;;;;;5.20;3.17;;;16.90;99.90;;;;;;5119213;27;20058;-71
2022/04/24 11:15:49;;;;;;;3.93;3.30;;;16.90;99.10;;;;;;5147033;27;20038;-71
2022/04/24 11:18:22;;;;;;;5.63;3.72;;;16.70;98.50;;;;;;5105370;27;20083;-71
2022/04/24 11:21:03;;;;;;;6.07;3.80;;;16.70;99.90;;;;;;5132094;27;20050;-71
2022/04/24 11:23:33;;;;;;;3.67;3.20;;;16.90;99.90;;;;;;5119386;27;20063;-71
2022/04/24 11:26:00;;;;;;;5.55;2.90;;;16.80;99.90;;;;;;5123704;27;20035;-71
2022/04/24 11:28:45;;;;;;;4.20;3.70;;;17.00;99.90;;;;;;5124218;27;20115;-72
2022/04/24 11:31:21;;;;;;;6.63;3.30;;;17.40;99.40;;;;;;5113844;27;20051;-71
2022/04/24 11:33:58;;;;;;;4.85;3.05;;;17.30;97.20;;;;;;5123715;27;20064;-71
2022/04/24 11:36:30;;;;;;;4.28;2.75;;;17.00;96.10;;;;;;5112953;27;20066;-71
2022/04/24 11:38:57;;;;;;;5.78;3.10;;;16.70;97.60;;;;;;5123312;27;20039;-71
2022/04/24 11:41:26;;;;;;;5.18;3.15;;;16.80;99.10;;;;;;5121399;27;20772;-71
2022/04/24 11:52:24;;;;;;;5.78;3.45;;;17.60;94.70;;;;;;5120515;28;20054;-71
2022/04/24 11:54:51;;;;;;;4.20;3.08;;;17.70;95.90;;;;;;5118673;28;20072;-71
2022/04/24 11:57:18;;;;;;;3.80;3.35;;;17.90;97.60;;;;;;5105808;28;20154;-71
2022/04/24 11:59:54;;;;;;;17.05;4.00;;;17.80;97.20;;;;;;5120498;27;20038;-71
2022/04/24 12:02:27;;;;;;;5.85;3.65;;;17.70;98.70;;;;;;5135153;28;20133;-71
2022/04/24 12:04:54;;;;;;;6.03;3.97;;;17.60;98.10;;;;;;5115410;27;20048;-71
2022/04/24 12:07:27;;;;;;;5.90;3.53;;;17.30;98.70;;;;;;5123813;28;20039;-71
2022/04/24 12:10:05;;;;;;;4.45;3.65;;;17.20;98.90;;;;;;5114777;28;20047;-71
2022/04/24 12:12:31;;;;;;;6.72;4.22;;;17.00;98.70;;;;;;5127244;28;20117;-71
2022/04/24 12:14:57;;;;;;;8.00;4.20;;;16.70;99.40;;;;;;5080221;28;20134;-71
2022/04/24 12:17:24;;;;;;;4.85;3.80;;;16.60;99.90;;;;;;5104298;27;20055;-71
2022/04/24 12:19:54;;;;;;;6.18;3.63;;;16.40;99.90;;;;;;5121249;27;20051;-71
2022/04/24 12:22:27;;;;;;;3.85;3.35;;;16.50;99.90;;;;;;5134521;28;20055;-71
2022/04/24 12:24:53;;;;;;;7.70;3.92;;;16.60;99.90;;;;;;5108039;27;20050;-71
2022/04/24 12:27:20;;;;;;;7.53;4.68;;;16.80;99.90;;;;;;5130976;28;20114;-71
2022/04/24 12:29:49;;;;;;;6.32;3.95;;;16.80;99.90;;;;;;5118502;27;20384;-71
2022/04/24 12:32:17;;;;;;;7.22;3.30;;;17.00;99.90;;;;;;5132598;28;20040;-71
2022/04/24 12:34:44;;;;;;;6.68;4.00;;;17.00;99.40;;;;;;5122496;28;20461;-71
2022/04/24 12:37:10;;;;;;;4.28;3.30;;;17.10;99.70;;;;;;5116693;28;20043;-71
2022/04/24 12:39:37;;;;;;;4.20;3.38;;;17.10;98.80;;;;;;5118625;28;20047;-71
2022/04/24 12:42:16;;;;;;;5.80;3.78;;;17.20;98.30;;;;;;5112427;28;20047;-71
2022/04/24 12:44:42;;;;;;;3.77;3.47;;;17.30;98.70;;;;;;5127161;27;20051;-72
2022/04/24 12:47:08;;;;;;;7.28;4.70;;;17.50;99.80;;;;;;5119546;27;20047;-71
2022/04/24 12:49:34;;;;;;;5.32;3.25;;;17.60;98.80;;;;;;5130254;27;20135;-72
2022/04/24 12:52:00;;;;;;;6.30;4.00;;;17.60;97.70;;;;;;5096307;27;20043;-71
2022/04/24 12:54:26;;;;;;;4.80;4.25;;;17.90;98.30;;;;;;5133080;27;20050;-71
2022/04/24 12:56:52;;;;;;;4.28;3.88;;;17.90;99.80;;;;;;5099582;27;20051;-71